Terminal Aerodrome Forecast
Issued by NWS Twin Cities, MN

Home | Current Version | Previous Version | Text Only | Print | Product List | Glossary Off
Versions: 1 2 3 4 5 6 7 8 9 10 11 12 13 14 15 16

000
FTUS43 KMPX 010235 AAA
TAFSTC
TAF AMD
KSTC 010235Z 0103/0124 33008KT P6SM -RA SCT012 OVC025
     FM010600 33008KT 5SM -SN BR BKN012 OVC020
     FM011200 32007KT P6SM OVC010
     FM011800 31008KT P6SM OVC018=

USA.gov is the U.S. government's official web portal to all federal, state and local government web resources and services.